sensor_id;sensor_type;location;lat;lon;timestamp;temperature;humidity
8886;DHT22;4479;51.162;13.906;2023-11-19T00:02:57;7.10;99.90
8886;DHT22;4479;51.162;13.906;2023-11-19T01:03:17;6.70;99.90
8886;DHT22;4479;51.162;13.906;2023-11-19T01:23:22;6.60;99.90
8886;DHT22;4479;51.162;13.906;2023-11-19T01:43:35;6.60;99.90
8886;DHT22;4479;51.162;13.906;2023-11-19T02:53:57;6.70;99.90
8886;DHT22;4479;51.162;13.906;2023-11-19T04:14:22;7.20;99.90
8886;DHT22;4479;51.162;13.906;2023-11-19T05:14:40;7.30;99.90
8886;DHT22;4479;51.162;13.906;2023-11-19T05:34:52;7.30;99.90
8886;DHT22;4479;51.162;13.906;2023-11-19T05:54:58;7.40;99.90
8886;DHT22;4479;51.162;13.906;2023-11-19T06:15:04;10.00;99.90
8886;DHT22;4479;51.162;13.906;2023-11-19T06:35:14;7.40;99.90
8886;DHT22;4479;51.162;13.906;2023-11-19T06:55:20;7.50;99.90
8886;DHT22;4479;51.162;13.906;2023-11-19T07:15:26;7.60;99.90
8886;DHT22;4479;51.162;13.906;2023-11-19T07:35:31;7.80;99.90
8886;DHT22;4479;51.162;13.906;2023-11-19T07:55:37;7.90;99.90
8886;DHT22;4479;51.162;13.906;2023-11-19T08:15:43;8.10;99.90
8886;DHT22;4479;51.162;13.906;2023-11-19T08:35:49;8.60;99.90
8886;DHT22;4479;51.162;13.906;2023-11-19T08:55:55;9.20;99.90
8886;DHT22;4479;51.162;13.906;2023-11-19T09:16:01;9.70;99.90
8886;DHT22;4479;51.162;13.906;2023-11-19T09:26:04;10.00;99.90
8886;DHT22;4479;51.162;13.906;2023-11-19T09:36:09;10.30;99.90
8886;DHT22;4479;51.162;13.906;2023-11-19T09:46:15;10.70;99.90
8886;DHT22;4479;51.162;13.906;2023-11-19T09:56:19;11.00;99.90
8886;DHT22;4479;51.162;13.906;2023-11-19T10:16:30;11.70;99.90
8886;DHT22;4479;51.162;13.906;2023-11-19T10:36:40;12.10;99.90
8886;DHT22;4479;51.162;13.906;2023-11-19T10:56:48;12.20;99.90
8886;DHT22;4479;51.162;13.906;2023-11-19T11:06:57;12.20;99.90
8886;DHT22;4479;51.162;13.906;2023-11-19T11:17:02;12.40;99.90
8886;DHT22;4479;51.162;13.906;2023-11-19T11:37:49;12.80;99.90
8886;DHT22;4479;51.162;13.906;2023-11-19T11:48:09;13.00;99.90
8886;DHT22;4479;51.162;13.906;2023-11-19T12:08:25;13.50;99.90
8886;DHT22;4479;51.162;13.906;2023-11-19T12:18:30;13.50;99.90
8886;DHT22;4479;51.162;13.906;2023-11-19T12:38:37;13.40;99.90
8886;DHT22;4479;51.162;13.906;2023-11-19T12:48:41;13.20;99.90
8886;DHT22;4479;51.162;13.906;2023-11-19T12:58:45;12.80;99.90
8886;DHT22;4479;51.162;13.906;2023-11-19T13:08:48;12.60;99.90
8886;DHT22;4479;51.162;13.906;2023-11-19T13:18:54;12.50;99.90
8886;DHT22;4479;51.162;13.906;2023-11-19T13:39:01;12.10;99.90
8886;DHT22;4479;51.162;13.906;2023-11-19T13:59:07;12.10;99.90
8886;DHT22;4479;51.162;13.906;2023-11-19T14:19:14;12.30;99.90
8886;DHT22;4479;51.162;13.906;2023-11-19T14:39:20;12.50;99.90
8886;DHT22;4479;51.162;13.906;2023-11-19T14:59:26;12.50;99.90
8886;DHT22;4479;51.162;13.906;2023-11-19T15:19:32;12.40;99.90
8886;DHT22;4479;51.162;13.906;2023-11-19T16:19:55;11.70;99.90
8886;DHT22;4479;51.162;13.906;2023-11-19T16:40:03;11.40;99.90
8886;DHT22;4479;51.162;13.906;2023-11-19T17:00:11;11.40;99.90
8886;DHT22;4479;51.162;13.906;2023-11-19T17:20:18;11.30;99.90
8886;DHT22;4479;51.162;13.906;2023-11-19T17:40:31;11.10;99.90
8886;DHT22;4479;51.162;13.906;2023-11-19T18:01:04;11.20;99.90
8886;DHT22;4479;51.162;13.906;2023-11-19T18:21:12;11.40;99.90
8886;DHT22;4479;51.162;13.906;2023-11-19T18:41:18;11.60;99.90
8886;DHT22;4479;51.162;13.906;2023-11-19T19:01:24;11.70;99.90
8886;DHT22;4479;51.162;13.906;2023-11-19T19:21:35;11.40;99.90
8886;DHT22;4479;51.162;13.906;2023-11-19T19:41:43;11.40;99.90
8886;DHT22;4479;51.162;13.906;2023-11-19T20:01:50;11.60;99.90
8886;DHT22;4479;51.162;13.906;2023-11-19T20:21:56;11.80;99.90
8886;DHT22;4479;51.162;13.906;2023-11-19T20:42:06;12.00;99.90
8886;DHT22;4479;51.162;13.906;2023-11-19T21:02:13;12.20;99.90
8886;DHT22;4479;51.162;13.906;2023-11-19T21:12:21;12.20;99.90
8886;DHT22;4479;51.162;13.906;2023-11-19T21:22:25;12.30;99.90
8886;DHT22;4479;51.162;13.906;2023-11-19T21:42:36;12.30;99.90
8886;DHT22;4479;51.162;13.906;2023-11-19T22:02:45;12.30;99.90
8886;DHT22;4479;51.162;13.906;2023-11-19T22:22:51;12.40;99.90
8886;DHT22;4479;51.162;13.906;2023-11-19T22:42:57;12.30;99.90
8886;DHT22;4479;51.162;13.906;2023-11-19T23:03:03;12.30;99.90
8886;DHT22;4479;51.162;13.906;2023-11-19T23:23:10;12.40;99.90
8886;DHT22;4479;51.162;13.906;2023-11-19T23:43:16;12.30;99.90
